sensor_id;sensor_type;location;lat;lon;timestamp;P1;durP1;ratioP1;P2;durP2;ratioP2
79346;SDS011;68815;48.810;44.482;2023-04-28T00:02:36;12.6;;;5.9;;
79346;SDS011;68815;48.810;44.482;2023-04-28T00:05:37;10.4;;;5.7;;
79346;SDS011;68815;48.810;44.482;2023-04-28T00:08:39;10.9;;;5.8;;
79346;SDS011;68815;48.810;44.482;2023-04-28T00:11:41;11.2;;;5.7;;
79346;SDS011;68815;48.810;44.482;2023-04-28T00:14:45;10.2;;;5.3;;
79346;SDS011;68815;48.810;44.482;2023-04-28T00:17:46;9.8;;;5.3;;
79346;SDS011;68815;48.810;44.482;2023-04-28T00:20:48;10;;;5;;
79346;SDS011;68815;48.810;44.482;2023-04-28T00:23:50;11;;;5.2;;
79346;SDS011;68815;48.810;44.482;2023-04-28T00:26:52;12.2;;;5.2;;
79346;SDS011;68815;48.810;44.482;2023-04-28T00:29:53;12.4;;;5.3;;
79346;SDS011;68815;48.810;44.482;2023-04-28T00:32:55;14.3;;;5.6;;
79346;SDS011;68815;48.810;44.482;2023-04-28T00:35:58;12.5;;;5.8;;
79346;SDS011;68815;48.810;44.482;2023-04-28T00:38:59;13.9;;;6.3;;
79346;SDS011;68815;48.810;44.482;2023-04-28T00:42:01;10.9;;;5.7;;
79346;SDS011;68815;48.810;44.482;2023-04-28T00:45:05;14.1;;;5.8;;
79346;SDS011;68815;48.810;44.482;2023-04-28T00:48:08;13.4;;;6;;
79346;SDS011;68815;48.810;44.482;2023-04-28T00:51:09;10.6;;;5.6;;
79346;SDS011;68815;48.810;44.482;2023-04-28T00:54:12;12.7;;;6.2;;
79346;SDS011;68815;48.810;44.482;2023-04-28T00:57:14;13.1;;;6;;
79346;SDS011;68815;48.810;44.482;2023-04-28T01:00:16;12.7;;;5.9;;
79346;SDS011;68815;48.810;44.482;2023-04-28T01:03:17;13.8;;;6.5;;
79346;SDS011;68815;48.810;44.482;2023-04-28T01:06:19;13.2;;;6.1;;
79346;SDS011;68815;48.810;44.482;2023-04-28T01:09:21;11.4;;;5.7;;
79346;SDS011;68815;48.810;44.482;2023-04-28T01:12:28;14.6;;;5.7;;
79346;SDS011;68815;48.810;44.482;2023-04-28T01:15:29;10.3;;;5.6;;
79346;SDS011;68815;48.810;44.482;2023-04-28T01:18:31;12;;;5.9;;
79346;SDS011;68815;48.810;44.482;2023-04-28T01:21:32;15.8;;;6.9;;
79346;SDS011;68815;48.810;44.482;2023-04-28T01:24:34;15.4;;;6.7;;
79346;SDS011;68815;48.810;44.482;2023-04-28T01:27:36;15.6;;;6.9;;
79346;SDS011;68815;48.810;44.482;2023-04-28T01:30:37;14.4;;;6.6;;
79346;SDS011;68815;48.810;44.482;2023-04-28T01:33:39;14;;;7;;
79346;SDS011;68815;48.810;44.482;2023-04-28T01:40:12;15.5;;;7;;
79346;SDS011;68815;48.810;44.482;2023-04-28T01:46:45;14.1;;;6.7;;
79346;SDS011;68815;48.810;44.482;2023-04-28T01:49:46;12.8;;;6.5;;
79346;SDS011;68815;48.810;44.482;2023-04-28T01:52:48;13.1;;;6.3;;
79346;SDS011;68815;48.810;44.482;2023-04-28T01:55:49;14.5;;;6.6;;
79346;SDS011;68815;48.810;44.482;2023-04-28T01:58:50;11.5;;;6.2;;
79346;SDS011;68815;48.810;44.482;2023-04-28T02:01:52;18.8;;;7.2;;
79346;SDS011;68815;48.810;44.482;2023-04-28T02:04:53;16.9;;;6.2;;
79346;SDS011;68815;48.810;44.482;2023-04-28T02:07:54;22.9;;;7.1;;
79346;SDS011;68815;48.810;44.482;2023-04-28T02:10:56;18.3;;;7.7;;
79346;SDS011;68815;48.810;44.482;2023-04-28T02:17:30;18.7;;;7.7;;
79346;SDS011;68815;48.810;44.482;2023-04-28T02:23:50;23.3;;;8.7;;
79346;SDS011;68815;48.810;44.482;2023-04-28T02:26:51;21.9;;;8.3;;
79346;SDS011;68815;48.810;44.482;2023-04-28T02:33:10;21.1;;;7;;
79346;SDS011;68815;48.810;44.482;2023-04-28T02:39:43;22.3;;;8.3;;
79346;SDS011;68815;48.810;44.482;2023-04-28T02:42:45;23;;;7.1;;
79346;SDS011;68815;48.810;44.482;2023-04-28T02:45:46;26;;;7.5;;
79346;SDS011;68815;48.810;44.482;2023-04-28T02:48:48;28;;;8;;
79346;SDS011;68815;48.810;44.482;2023-04-28T02:51:49;35.1;;;9.1;;
79346;SDS011;68815;48.810;44.482;2023-04-28T02:54:51;26.4;;;7.5;;
79346;SDS011;68815;48.810;44.482;2023-04-28T02:57:52;18.3;;;6.4;;
79346;SDS011;68815;48.810;44.482;2023-04-28T03:00:53;16.1;;;7;;
79346;SDS011;68815;48.810;44.482;2023-04-28T03:03:55;14.8;;;6;;
79346;SDS011;68815;48.810;44.482;2023-04-28T03:06:56;15.7;;;6;;
79346;SDS011;68815;48.810;44.482;2023-04-28T03:09:58;13.5;;;5.5;;
79346;SDS011;68815;48.810;44.482;2023-04-28T03:12:59;12.5;;;5.7;;
79346;SDS011;68815;48.810;44.482;2023-04-28T03:16:01;11.8;;;5.6;;
79346;SDS011;68815;48.810;44.482;2023-04-28T03:19:08;13.6;;;5.8;;
79346;SDS011;68815;48.810;44.482;2023-04-28T03:22:10;11.1;;;5.5;;
79346;SDS011;68815;48.810;44.482;2023-04-28T03:25:11;11.8;;;5.2;;
79346;SDS011;68815;48.810;44.482;2023-04-28T03:28:13;13.1;;;5.5;;
79346;SDS011;68815;48.810;44.482;2023-04-28T03:31:14;11.3;;;5.3;;
79346;SDS011;68815;48.810;44.482;2023-04-28T03:34:16;15;;;5.7;;
79346;SDS011;68815;48.810;44.482;2023-04-28T03:37:18;11.6;;;5.4;;
79346;SDS011;68815;48.810;44.482;2023-04-28T03:40:19;12.5;;;5.4;;
79346;SDS011;68815;48.810;44.482;2023-04-28T03:43:21;43.4;;;7.3;;
79346;SDS011;68815;48.810;44.482;2023-04-28T03:46:23;12.4;;;5.4;;
79346;SDS011;68815;48.810;44.482;2023-04-28T03:49:25;11.5;;;5;;
79346;SDS011;68815;48.810;44.482;2023-04-28T03:52:26;10.7;;;4.8;;
79346;SDS011;68815;48.810;44.482;2023-04-28T03:55:28;11.4;;;5;;
79346;SDS011;68815;48.810;44.482;2023-04-28T03:58:29;8.6;;;5;;
79346;SDS011;68815;48.810;44.482;2023-04-28T04:01:30;9.5;;;4.8;;
79346;SDS011;68815;48.810;44.482;2023-04-28T04:04:32;11.9;;;5.2;;
79346;SDS011;68815;48.810;44.482;2023-04-28T04:07:33;10.2;;;4.6;;
79346;SDS011;68815;48.810;44.482;2023-04-28T04:10:35;9.5;;;4.3;;
79346;SDS011;68815;48.810;44.482;2023-04-28T04:13:37;9.9;;;3.8;;
79346;SDS011;68815;48.810;44.482;2023-04-28T04:16:38;8.7;;;4.2;;
79346;SDS011;68815;48.810;44.482;2023-04-28T04:19:40;10.6;;;3.7;;
79346;SDS011;68815;48.810;44.482;2023-04-28T04:22:42;6.7;;;3.9;;
79346;SDS011;68815;48.810;44.482;2023-04-28T04:25:43;9.4;;;4;;
79346;SDS011;68815;48.810;44.482;2023-04-28T04:28:45;8.2;;;4.1;;
79346;SDS011;68815;48.810;44.482;2023-04-28T04:31:46;7.5;;;3.7;;
79346;SDS011;68815;48.810;44.482;2023-04-28T04:34:48;6.5;;;3.5;;
79346;SDS011;68815;48.810;44.482;2023-04-28T04:37:50;9;;;3.4;;
79346;SDS011;68815;48.810;44.482;2023-04-28T04:40:52;7.2;;;3.4;;
79346;SDS011;68815;48.810;44.482;2023-04-28T04:43:53;7.7;;;3.5;;
79346;SDS011;68815;48.810;44.482;2023-04-28T04:46:55;9;;;3.3;;
79346;SDS011;68815;48.810;44.482;2023-04-28T04:49:56;10.1;;;3.4;;
79346;SDS011;68815;48.810;44.482;2023-04-28T04:52:58;8.8;;;3.5;;
79346;SDS011;68815;48.810;44.482;2023-04-28T04:55:59;15.2;;;3.4;;
79346;SDS011;68815;48.810;44.482;2023-04-28T04:59:01;7;;;3;;
79346;SDS011;68815;48.810;44.482;2023-04-28T05:02:03;6.1;;;2.9;;
79346;SDS011;68815;48.810;44.482;2023-04-28T05:05:04;7.7;;;3.2;;
79346;SDS011;68815;48.810;44.482;2023-04-28T05:08:07;7.4;;;3.4;;
79346;SDS011;68815;48.810;44.482;2023-04-28T05:11:09;7.3;;;3.1;;
79346;SDS011;68815;48.810;44.482;2023-04-28T05:14:11;9.4;;;3.5;;
79346;SDS011;68815;48.810;44.482;2023-04-28T05:17:12;7.5;;;3.1;;
79346;SDS011;68815;48.810;44.482;2023-04-28T05:20:14;9.8;;;3;;
79346;SDS011;68815;48.810;44.482;2023-04-28T05:23:16;10.9;;;3.4;;
79346;SDS011;68815;48.810;44.482;2023-04-28T05:26:17;9.2;;;3.4;;
79346;SDS011;68815;48.810;44.482;2023-04-28T05:29:19;9.1;;;3.5;;
79346;SDS011;68815;48.810;44.482;2023-04-28T05:32:20;7.2;;;2.9;;
79346;SDS011;68815;48.810;44.482;2023-04-28T05:35:22;8.2;;;3.1;;
79346;SDS011;68815;48.810;44.482;2023-04-28T05:38:23;9.1;;;3.3;;
79346;SDS011;68815;48.810;44.482;2023-04-28T05:41:25;7.5;;;2.9;;
79346;SDS011;68815;48.810;44.482;2023-04-28T05:44:27;5.9;;;3.2;;
79346;SDS011;68815;48.810;44.482;2023-04-28T05:47:28;6.3;;;2.9;;
79346;SDS011;68815;48.810;44.482;2023-04-28T05:50:30;9.4;;;3.3;;
79346;SDS011;68815;48.810;44.482;2023-04-28T05:53:31;6.3;;;3.1;;
79346;SDS011;68815;48.810;44.482;2023-04-28T05:56:33;6.6;;;2.7;;
79346;SDS011;68815;48.810;44.482;2023-04-28T05:59:35;6.6;;;2.8;;
79346;SDS011;68815;48.810;44.482;2023-04-28T06:02:36;8.1;;;2.7;;
79346;SDS011;68815;48.810;44.482;2023-04-28T06:05:38;8.4;;;2.7;;
79346;SDS011;68815;48.810;44.482;2023-04-28T06:08:39;6.8;;;2.4;;
79346;SDS011;68815;48.810;44.482;2023-04-28T06:11:41;6.7;;;2.5;;
79346;SDS011;68815;48.810;44.482;2023-04-28T06:14:42;7.9;;;2.9;;
79346;SDS011;68815;48.810;44.482;2023-04-28T06:17:44;6;;;2.3;;
79346;SDS011;68815;48.810;44.482;2023-04-28T06:20:45;5.8;;;2.4;;
79346;SDS011;68815;48.810;44.482;2023-04-28T06:23:48;5.5;;;2.5;;
79346;SDS011;68815;48.810;44.482;2023-04-28T06:26:49;8.6;;;2.7;;
79346;SDS011;68815;48.810;44.482;2023-04-28T06:29:51;7.7;;;3;;
79346;SDS011;68815;48.810;44.482;2023-04-28T06:32:53;9.7;;;3.3;;
79346;SDS011;68815;48.810;44.482;2023-04-28T06:35:54;8.7;;;2.8;;
79346;SDS011;68815;48.810;44.482;2023-04-28T06:38:56;9.8;;;2.9;;
79346;SDS011;68815;48.810;44.482;2023-04-28T06:41:57;7;;;2.5;;
79346;SDS011;68815;48.810;44.482;2023-04-28T06:44:59;7.3;;;2.5;;
79346;SDS011;68815;48.810;44.482;2023-04-28T06:48:01;6.2;;;2.4;;
79346;SDS011;68815;48.810;44.482;2023-04-28T06:51:02;6.9;;;2.5;;
79346;SDS011;68815;48.810;44.482;2023-04-28T06:54:04;8;;;2.6;;
79346;SDS011;68815;48.810;44.482;2023-04-28T06:57:06;9.2;;;2.4;;
79346;SDS011;68815;48.810;44.482;2023-04-28T07:00:08;5.3;;;2.3;;
79346;SDS011;68815;48.810;44.482;2023-04-28T07:03:10;5;;;2.2;;
79346;SDS011;68815;48.810;44.482;2023-04-28T07:06:11;10;;;2.6;;
79346;SDS011;68815;48.810;44.482;2023-04-28T07:09:13;5.5;;;2.2;;
79346;SDS011;68815;48.810;44.482;2023-04-28T07:12:14;10.2;;;4.1;;
79346;SDS011;68815;48.810;44.482;2023-04-28T07:15:16;5.1;;;1.9;;
79346;SDS011;68815;48.810;44.482;2023-04-28T07:18:17;5.9;;;2.1;;
79346;SDS011;68815;48.810;44.482;2023-04-28T07:21:19;6.1;;;2.2;;
79346;SDS011;68815;48.810;44.482;2023-04-28T07:24:21;4.2;;;2.3;;
79346;SDS011;68815;48.810;44.482;2023-04-28T07:27:22;8;;;2.2;;
79346;SDS011;68815;48.810;44.482;2023-04-28T07:30:24;11.9;;;2.6;;
79346;SDS011;68815;48.810;44.482;2023-04-28T07:33:26;8.4;;;2.4;;
79346;SDS011;68815;48.810;44.482;2023-04-28T07:36:27;7;;;2.3;;
79346;SDS011;68815;48.810;44.482;2023-04-28T07:39:29;6;;;2;;
79346;SDS011;68815;48.810;44.482;2023-04-28T07:42:32;7.3;;;2.5;;
79346;SDS011;68815;48.810;44.482;2023-04-28T07:45:36;6.4;;;2.3;;
79346;SDS011;68815;48.810;44.482;2023-04-28T07:48:38;5.2;;;2.1;;
79346;SDS011;68815;48.810;44.482;2023-04-28T07:51:39;5;;;2.2;;
79346;SDS011;68815;48.810;44.482;2023-04-28T07:54:41;5.8;;;1.8;;
79346;SDS011;68815;48.810;44.482;2023-04-28T07:57:42;7.3;;;2.4;;
79346;SDS011;68815;48.810;44.482;2023-04-28T08:00:44;7.3;;;2.5;;
79346;SDS011;68815;48.810;44.482;2023-04-28T08:03:45;7.3;;;2.5;;
79346;SDS011;68815;48.810;44.482;2023-04-28T08:06:47;7.4;;;2.3;;
79346;SDS011;68815;48.810;44.482;2023-04-28T08:09:48;7.1;;;2.1;;
79346;SDS011;68815;48.810;44.482;2023-04-28T08:12:50;5.4;;;1.9;;
79346;SDS011;68815;48.810;44.482;2023-04-28T08:15:51;6.2;;;2;;
79346;SDS011;68815;48.810;44.482;2023-04-28T08:18:53;6.7;;;2.1;;
79346;SDS011;68815;48.810;44.482;2023-04-28T08:21:54;6.9;;;2.4;;
79346;SDS011;68815;48.810;44.482;2023-04-28T08:24:56;5.6;;;2;;
79346;SDS011;68815;48.810;44.482;2023-04-28T08:27:58;5;;;1.9;;
79346;SDS011;68815;48.810;44.482;2023-04-28T08:30:59;5.7;;;2.2;;
79346;SDS011;68815;48.810;44.482;2023-04-28T08:34:01;7.7;;;2.1;;
79346;SDS011;68815;48.810;44.482;2023-04-28T08:37:03;5;;;1.8;;
79346;SDS011;68815;48.810;44.482;2023-04-28T08:40:06;10.1;;;1.9;;
79346;SDS011;68815;48.810;44.482;2023-04-28T08:43:08;5.8;;;1.9;;
79346;SDS011;68815;48.810;44.482;2023-04-28T08:46:10;5.2;;;1.8;;
79346;SDS011;68815;48.810;44.482;2023-04-28T08:49:15;7.3;;;2.2;;
79346;SDS011;68815;48.810;44.482;2023-04-28T08:52:18;7;;;2.3;;
79346;SDS011;68815;48.810;44.482;2023-04-28T08:55:20;5.3;;;2;;
79346;SDS011;68815;48.810;44.482;2023-04-28T08:58:22;4.7;;;2.2;;
79346;SDS011;68815;48.810;44.482;2023-04-28T09:01:23;6.7;;;2;;
79346;SDS011;68815;48.810;44.482;2023-04-28T09:04:25;6.5;;;1.7;;
79346;SDS011;68815;48.810;44.482;2023-04-28T09:07:26;4.4;;;2;;
79346;SDS011;68815;48.810;44.482;2023-04-28T09:10:28;4.8;;;2;;
79346;SDS011;68815;48.810;44.482;2023-04-28T09:13:29;8.7;;;1.8;;
79346;SDS011;68815;48.810;44.482;2023-04-28T09:16:38;5.7;;;1.8;;
79346;SDS011;68815;48.810;44.482;2023-04-28T09:19:40;4.5;;;1.8;;
79346;SDS011;68815;48.810;44.482;2023-04-28T09:22:42;9.7;;;2.5;;
79346;SDS011;68815;48.810;44.482;2023-04-28T09:29:10;4.6;;;1.9;;
79346;SDS011;68815;48.810;44.482;2023-04-28T09:32:13;6.6;;;1.6;;
79346;SDS011;68815;48.810;44.482;2023-04-28T09:35:16;6;;;1.9;;
79346;SDS011;68815;48.810;44.482;2023-04-28T09:38:42;6.5;;;1.8;;
79346;SDS011;68815;48.810;44.482;2023-04-28T09:41:45;4.2;;;2;;
79346;SDS011;68815;48.810;44.482;2023-04-28T09:44:51;5.2;;;2;;
79346;SDS011;68815;48.810;44.482;2023-04-28T09:47:54;6.5;;;2;;
79346;SDS011;68815;48.810;44.482;2023-04-28T09:51:09;5.5;;;2;;
79346;SDS011;68815;48.810;44.482;2023-04-28T09:54:11;3.8;;;1.8;;
79346;SDS011;68815;48.810;44.482;2023-04-28T09:57:13;4.8;;;2;;
79346;SDS011;68815;48.810;44.482;2023-04-28T10:00:16;6.3;;;2.1;;
79346;SDS011;68815;48.810;44.482;2023-04-28T10:03:17;6;;;2.1;;
79346;SDS011;68815;48.810;44.482;2023-04-28T10:06:21;6;;;1.9;;
79346;SDS011;68815;48.810;44.482;2023-04-28T10:09:23;5.4;;;1.8;;
79346;SDS011;68815;48.810;44.482;2023-04-28T10:12:24;7.1;;;2.2;;
79346;SDS011;68815;48.810;44.482;2023-04-28T10:15:26;6.6;;;2.1;;
79346;SDS011;68815;48.810;44.482;2023-04-28T10:18:27;6.1;;;2;;
79346;SDS011;68815;48.810;44.482;2023-04-28T10:21:29;6.2;;;1.9;;
79346;SDS011;68815;48.810;44.482;2023-04-28T10:24:43;9.2;;;1.9;;
79346;SDS011;68815;48.810;44.482;2023-04-28T10:27:54;6.8;;;2.2;;
79346;SDS011;68815;48.810;44.482;2023-04-28T10:41:04;5.8;;;2;;
79346;SDS011;68815;48.810;44.482;2023-04-28T10:47:59;5.4;;;2.1;;
79346;SDS011;68815;48.810;44.482;2023-04-28T10:54:23;5.1;;;1.8;;
79346;SDS011;68815;48.810;44.482;2023-04-28T10:57:25;4.5;;;1.9;;
79346;SDS011;68815;48.810;44.482;2023-04-28T11:00:27;9.8;;;2.2;;
79346;SDS011;68815;48.810;44.482;2023-04-28T11:03:39;5.2;;;2.6;;
79346;SDS011;68815;48.810;44.482;2023-04-28T11:10:16;4.5;;;2.2;;
79346;SDS011;68815;48.810;44.482;2023-04-28T11:13:24;6.7;;;2.1;;
79346;SDS011;68815;48.810;44.482;2023-04-28T11:16:27;4.6;;;1.8;;
79346;SDS011;68815;48.810;44.482;2023-04-28T11:19:29;5.7;;;1.9;;
79346;SDS011;68815;48.810;44.482;2023-04-28T11:22:31;4.3;;;1.7;;
79346;SDS011;68815;48.810;44.482;2023-04-28T11:28:59;4.7;;;1.7;;
79346;SDS011;68815;48.810;44.482;2023-04-28T11:32:01;5.4;;;2;;
79346;SDS011;68815;48.810;44.482;2023-04-28T11:35:03;6.7;;;2;;
79346;SDS011;68815;48.810;44.482;2023-04-28T11:38:07;6.5;;;1.9;;
79346;SDS011;68815;48.810;44.482;2023-04-28T11:41:09;4;;;1.8;;
79346;SDS011;68815;48.810;44.482;2023-04-28T11:44:11;5.6;;;2.1;;
79346;SDS011;68815;48.810;44.482;2023-04-28T11:47:13;5.6;;;2;;
79346;SDS011;68815;48.810;44.482;2023-04-28T11:50:14;8.6;;;2.1;;
79346;SDS011;68815;48.810;44.482;2023-04-28T11:53:16;6.4;;;2;;
79346;SDS011;68815;48.810;44.482;2023-04-28T11:56:18;4.4;;;1.8;;
79346;SDS011;68815;48.810;44.482;2023-04-28T11:59:22;5.6;;;2.1;;
79346;SDS011;68815;48.810;44.482;2023-04-28T12:02:26;6.6;;;2.1;;
79346;SDS011;68815;48.810;44.482;2023-04-28T12:05:27;4.9;;;1.8;;
79346;SDS011;68815;48.810;44.482;2023-04-28T12:08:29;4.4;;;1.9;;
79346;SDS011;68815;48.810;44.482;2023-04-28T12:11:30;4.8;;;1.8;;
79346;SDS011;68815;48.810;44.482;2023-04-28T12:14:32;5.1;;;1.8;;
79346;SDS011;68815;48.810;44.482;2023-04-28T12:17:49;4;;;1.8;;
79346;SDS011;68815;48.810;44.482;2023-04-28T12:20:51;4.4;;;1.9;;
79346;SDS011;68815;48.810;44.482;2023-04-28T12:23:52;4.6;;;1.5;;
79346;SDS011;68815;48.810;44.482;2023-04-28T12:27:03;5.5;;;1.8;;
79346;SDS011;68815;48.810;44.482;2023-04-28T12:33:34;5.2;;;1.8;;
79346;SDS011;68815;48.810;44.482;2023-04-28T12:36:36;6.2;;;2.1;;
79346;SDS011;68815;48.810;44.482;2023-04-28T12:39:38;8;;;2.2;;
79346;SDS011;68815;48.810;44.482;2023-04-28T12:42:41;7.2;;;2.3;;
79346;SDS011;68815;48.810;44.482;2023-04-28T12:45:42;5.5;;;1.9;;
79346;SDS011;68815;48.810;44.482;2023-04-28T12:48:44;6;;;2;;
79346;SDS011;68815;48.810;44.482;2023-04-28T12:51:45;5.3;;;2;;
79346;SDS011;68815;48.810;44.482;2023-04-28T12:54:47;7.4;;;2.3;;
79346;SDS011;68815;48.810;44.482;2023-04-28T12:57:49;7.4;;;2.1;;
79346;SDS011;68815;48.810;44.482;2023-04-28T13:00:50;5.9;;;2.1;;
79346;SDS011;68815;48.810;44.482;2023-04-28T13:03:52;7.2;;;2.3;;
79346;SDS011;68815;48.810;44.482;2023-04-28T13:06:53;10.7;;;2.2;;
79346;SDS011;68815;48.810;44.482;2023-04-28T13:09:54;6.1;;;2.2;;
79346;SDS011;68815;48.810;44.482;2023-04-28T13:12:56;5.8;;;1.8;;
79346;SDS011;68815;48.810;44.482;2023-04-28T13:15:57;6.3;;;2.1;;
79346;SDS011;68815;48.810;44.482;2023-04-28T13:18:59;5.3;;;1.7;;
79346;SDS011;68815;48.810;44.482;2023-04-28T13:22:01;5.8;;;1.7;;
79346;SDS011;68815;48.810;44.482;2023-04-28T13:25:03;5;;;1.6;;
79346;SDS011;68815;48.810;44.482;2023-04-28T13:28:11;9.5;;;2.2;;
79346;SDS011;68815;48.810;44.482;2023-04-28T13:31:13;7.1;;;1.9;;
79346;SDS011;68815;48.810;44.482;2023-04-28T13:34:15;5.9;;;2;;
79346;SDS011;68815;48.810;44.482;2023-04-28T13:37:16;5.4;;;1.9;;
79346;SDS011;68815;48.810;44.482;2023-04-28T13:40:18;8.5;;;1.9;;
79346;SDS011;68815;48.810;44.482;2023-04-28T13:43:21;7.8;;;1.7;;
79346;SDS011;68815;48.810;44.482;2023-04-28T13:46:22;7.1;;;2;;
79346;SDS011;68815;48.810;44.482;2023-04-28T13:49:24;6.7;;;2.3;;
79346;SDS011;68815;48.810;44.482;2023-04-28T13:52:26;7.6;;;2.2;;
79346;SDS011;68815;48.810;44.482;2023-04-28T13:55:27;5.4;;;2.2;;
79346;SDS011;68815;48.810;44.482;2023-04-28T13:58:28;8.9;;;2.6;;
79346;SDS011;68815;48.810;44.482;2023-04-28T14:01:30;7.5;;;2.4;;
79346;SDS011;68815;48.810;44.482;2023-04-28T14:04:32;5.8;;;2.1;;
79346;SDS011;68815;48.810;44.482;2023-04-28T14:07:33;6.1;;;2;;
79346;SDS011;68815;48.810;44.482;2023-04-28T14:10:35;7.1;;;2.3;;
79346;SDS011;68815;48.810;44.482;2023-04-28T14:13:36;9.8;;;2.1;;
79346;SDS011;68815;48.810;44.482;2023-04-28T14:16:38;7.1;;;2.1;;
79346;SDS011;68815;48.810;44.482;2023-04-28T14:19:40;7.7;;;2.3;;
79346;SDS011;68815;48.810;44.482;2023-04-28T14:22:41;8.7;;;2.3;;
79346;SDS011;68815;48.810;44.482;2023-04-28T14:25:43;8.9;;;2.4;;
79346;SDS011;68815;48.810;44.482;2023-04-28T14:28:44;7.4;;;2.2;;
79346;SDS011;68815;48.810;44.482;2023-04-28T14:31:47;9.3;;;2.7;;
79346;SDS011;68815;48.810;44.482;2023-04-28T14:34:51;9.2;;;2.8;;
79346;SDS011;68815;48.810;44.482;2023-04-28T14:37:52;7.8;;;2.3;;
79346;SDS011;68815;48.810;44.482;2023-04-28T14:40:54;10.5;;;2.2;;
79346;SDS011;68815;48.810;44.482;2023-04-28T14:43:56;9.7;;;2.2;;
79346;SDS011;68815;48.810;44.482;2023-04-28T14:46:57;7.9;;;2.6;;
79346;SDS011;68815;48.810;44.482;2023-04-28T14:49:59;10.9;;;2.4;;
79346;SDS011;68815;48.810;44.482;2023-04-28T14:53:01;10.8;;;2.6;;
79346;SDS011;68815;48.810;44.482;2023-04-28T14:56:02;8.8;;;2.2;;
79346;SDS011;68815;48.810;44.482;2023-04-28T14:59:04;9.5;;;2.3;;
79346;SDS011;68815;48.810;44.482;2023-04-28T15:02:06;8;;;2.5;;
79346;SDS011;68815;48.810;44.482;2023-04-28T15:05:08;8.6;;;2.6;;
79346;SDS011;68815;48.810;44.482;2023-04-28T15:08:10;9.2;;;3;;
79346;SDS011;68815;48.810;44.482;2023-04-28T15:11:11;12.4;;;3.2;;
79346;SDS011;68815;48.810;44.482;2023-04-28T15:14:13;11.4;;;3.2;;
79346;SDS011;68815;48.810;44.482;2023-04-28T15:17:14;10.3;;;3;;
79346;SDS011;68815;48.810;44.482;2023-04-28T15:20:16;12.1;;;2.8;;
79346;SDS011;68815;48.810;44.482;2023-04-28T15:23:17;13.2;;;4;;
79346;SDS011;68815;48.810;44.482;2023-04-28T15:26:18;9.9;;;3.3;;
79346;SDS011;68815;48.810;44.482;2023-04-28T15:29:20;9.8;;;3.2;;
79346;SDS011;68815;48.810;44.482;2023-04-28T15:32:22;12.6;;;3;;
79346;SDS011;68815;48.810;44.482;2023-04-28T15:35:24;11.4;;;2.4;;
79346;SDS011;68815;48.810;44.482;2023-04-28T15:38:26;13.1;;;2.8;;
79346;SDS011;68815;48.810;44.482;2023-04-28T15:41:27;13.3;;;3;;
79346;SDS011;68815;48.810;44.482;2023-04-28T15:44:29;19.8;;;3.8;;
79346;SDS011;68815;48.810;44.482;2023-04-28T15:47:30;16.4;;;3.3;;
79346;SDS011;68815;48.810;44.482;2023-04-28T15:50:32;14.2;;;3.2;;
79346;SDS011;68815;48.810;44.482;2023-04-28T15:53:33;12.8;;;3.2;;
79346;SDS011;68815;48.810;44.482;2023-04-28T15:56:35;11;;;2.8;;
79346;SDS011;68815;48.810;44.482;2023-04-28T15:59:36;16.9;;;3.2;;
79346;SDS011;68815;48.810;44.482;2023-04-28T16:02:38;11;;;2.7;;
79346;SDS011;68815;48.810;44.482;2023-04-28T16:05:39;11.6;;;2.5;;
79346;SDS011;68815;48.810;44.482;2023-04-28T16:08:41;14.2;;;3;;
79346;SDS011;68815;48.810;44.482;2023-04-28T16:11:42;13.2;;;2.9;;
79346;SDS011;68815;48.810;44.482;2023-04-28T16:14:44;15.4;;;4;;
79346;SDS011;68815;48.810;44.482;2023-04-28T16:17:48;11.8;;;3.6;;
79346;SDS011;68815;48.810;44.482;2023-04-28T16:20:50;11.2;;;3.4;;
79346;SDS011;68815;48.810;44.482;2023-04-28T16:23:51;15.2;;;3.9;;
79346;SDS011;68815;48.810;44.482;2023-04-28T16:26:53;17.8;;;4.2;;
79346;SDS011;68815;48.810;44.482;2023-04-28T16:29:54;12.5;;;4;;
79346;SDS011;68815;48.810;44.482;2023-04-28T16:32:56;19;;;4.2;;
79346;SDS011;68815;48.810;44.482;2023-04-28T16:35:57;10.1;;;3.8;;
79346;SDS011;68815;48.810;44.482;2023-04-28T16:38:59;13.2;;;4.1;;
79346;SDS011;68815;48.810;44.482;2023-04-28T16:42:00;14.7;;;4.3;;
79346;SDS011;68815;48.810;44.482;2023-04-28T16:45:02;12.3;;;3.7;;
79346;SDS011;68815;48.810;44.482;2023-04-28T16:48:06;13.2;;;3.6;;
79346;SDS011;68815;48.810;44.482;2023-04-28T16:51:08;12.6;;;3.7;;
79346;SDS011;68815;48.810;44.482;2023-04-28T16:54:10;14.3;;;3.8;;
79346;SDS011;68815;48.810;44.482;2023-04-28T16:57:11;13.8;;;4.5;;
79346;SDS011;68815;48.810;44.482;2023-04-28T17:00:13;17.6;;;5.4;;
79346;SDS011;68815;48.810;44.482;2023-04-28T17:03:15;20.3;;;5.6;;
79346;SDS011;68815;48.810;44.482;2023-04-28T17:06:16;20;;;5.3;;
79346;SDS011;68815;48.810;44.482;2023-04-28T17:09:18;21.3;;;5.6;;
79346;SDS011;68815;48.810;44.482;2023-04-28T17:12:20;16.3;;;5.4;;
79346;SDS011;68815;48.810;44.482;2023-04-28T17:15:22;19.1;;;6.1;;
79346;SDS011;68815;48.810;44.482;2023-04-28T17:18:23;14.3;;;5.3;;
79346;SDS011;68815;48.810;44.482;2023-04-28T17:21:25;14.4;;;5.3;;
79346;SDS011;68815;48.810;44.482;2023-04-28T17:24:27;15.3;;;4.5;;
79346;SDS011;68815;48.810;44.482;2023-04-28T17:27:28;23.2;;;5.5;;
79346;SDS011;68815;48.810;44.482;2023-04-28T17:30:30;14.4;;;4.8;;
79346;SDS011;68815;48.810;44.482;2023-04-28T17:33:31;15.7;;;5.4;;
79346;SDS011;68815;48.810;44.482;2023-04-28T17:36:34;13.6;;;4.9;;
79346;SDS011;68815;48.810;44.482;2023-04-28T17:39:35;12;;;4.1;;
79346;SDS011;68815;48.810;44.482;2023-04-28T17:42:36;15.8;;;4.9;;
79346;SDS011;68815;48.810;44.482;2023-04-28T17:48:50;12.4;;;5.3;;
79346;SDS011;68815;48.810;44.482;2023-04-28T17:51:52;12.4;;;4.4;;
79346;SDS011;68815;48.810;44.482;2023-04-28T17:54:54;13.1;;;4.4;;
79346;SDS011;68815;48.810;44.482;2023-04-28T17:57:56;10.2;;;4.2;;
79346;SDS011;68815;48.810;44.482;2023-04-28T18:00:58;9.3;;;4.2;;
79346;SDS011;68815;48.810;44.482;2023-04-28T18:04:00;11.3;;;3.9;;
79346;SDS011;68815;48.810;44.482;2023-04-28T18:07:01;11.8;;;4.2;;
79346;SDS011;68815;48.810;44.482;2023-04-28T18:10:03;10.7;;;4.2;;
79346;SDS011;68815;48.810;44.482;2023-04-28T18:13:05;12.2;;;4.8;;
79346;SDS011;68815;48.810;44.482;2023-04-28T18:16:06;13.4;;;4.6;;
79346;SDS011;68815;48.810;44.482;2023-04-28T18:19:08;10.4;;;4.7;;
79346;SDS011;68815;48.810;44.482;2023-04-28T18:22:09;10.2;;;4.4;;
79346;SDS011;68815;48.810;44.482;2023-04-28T18:25:11;11.4;;;4.5;;
79346;SDS011;68815;48.810;44.482;2023-04-28T18:28:13;8.7;;;4.3;;
79346;SDS011;68815;48.810;44.482;2023-04-28T18:31:15;8.3;;;4.5;;
79346;SDS011;68815;48.810;44.482;2023-04-28T18:34:17;11;;;4.8;;
79346;SDS011;68815;48.810;44.482;2023-04-28T18:40:50;12;;;5;;
79346;SDS011;68815;48.810;44.482;2023-04-28T18:43:53;12.3;;;4.6;;
79346;SDS011;68815;48.810;44.482;2023-04-28T18:46:56;8.5;;;4.3;;
79346;SDS011;68815;48.810;44.482;2023-04-28T18:49:58;7.8;;;3.7;;
79346;SDS011;68815;48.810;44.482;2023-04-28T18:53:00;7.2;;;3.6;;
79346;SDS011;68815;48.810;44.482;2023-04-28T18:56:01;13.1;;;3.5;;
79346;SDS011;68815;48.810;44.482;2023-04-28T18:59:03;7.8;;;3.2;;
79346;SDS011;68815;48.810;44.482;2023-04-28T19:02:05;8.1;;;3.4;;
79346;SDS011;68815;48.810;44.482;2023-04-28T19:05:06;10.9;;;3.2;;
79346;SDS011;68815;48.810;44.482;2023-04-28T19:08:08;10.7;;;3.2;;
79346;SDS011;68815;48.810;44.482;2023-04-28T19:11:09;7.8;;;3;;
79346;SDS011;68815;48.810;44.482;2023-04-28T19:14:11;6.7;;;3;;
79346;SDS011;68815;48.810;44.482;2023-04-28T19:17:12;6.6;;;2.9;;
79346;SDS011;68815;48.810;44.482;2023-04-28T19:20:14;12.8;;;3.1;;
79346;SDS011;68815;48.810;44.482;2023-04-28T19:23:15;7.9;;;3;;
79346;SDS011;68815;48.810;44.482;2023-04-28T19:26:17;13.3;;;3;;
79346;SDS011;68815;48.810;44.482;2023-04-28T19:29:18;7;;;2.9;;
79346;SDS011;68815;48.810;44.482;2023-04-28T19:32:20;8.4;;;3.1;;
79346;SDS011;68815;48.810;44.482;2023-04-28T19:35:21;7.1;;;3;;